createdAt,value
2022-09-14T00:01:48.808Z,70.16
2022-09-14T00:03:58.680Z,70.42
2022-09-14T00:06:07.936Z,72.15
2022-09-14T00:08:10.224Z,72.83
2022-09-14T00:10:11.766Z,72.98
2022-09-14T00:12:13.235Z,72.93
2022-09-14T00:14:15.644Z,74.16
2022-09-14T00:16:22.133Z,73.25
2022-09-14T00:18:24.716Z,72.94
2022-09-14T00:20:26.254Z,72.68
2022-09-14T00:22:27.679Z,72.23
2022-09-14T00:24:34.252Z,72.45
2022-09-14T00:26:36.391Z,73.12
2022-09-14T00:29:05.257Z,73.30
2022-09-14T00:31:07.330Z,74.86
2022-09-14T00:33:09.399Z,76.65
2022-09-14T00:35:11.108Z,78.32
2022-09-14T00:37:12.567Z,78.45
2022-09-14T00:39:14.680Z,79.39
2022-09-14T00:41:22.547Z,79.42
2022-09-14T00:43:24.260Z,79.46
2022-09-14T00:45:26.129Z,79.20
2022-09-14T00:47:30.741Z,78.49
2022-09-14T00:49:40.700Z,76.51
2022-09-14T00:51:49.506Z,76.38
2022-09-14T00:53:51.410Z,75.97
2022-09-14T00:55:54.232Z,74.60
2022-09-14T00:57:55.739Z,74.24
2022-09-14T00:59:57.994Z,75.57
2022-09-14T01:01:59.534Z,76.98
2022-09-14T01:04:01.242Z,79.00
2022-09-14T01:06:35.329Z,80.10
2022-09-14T01:09:10.301Z,80.54
2022-09-14T01:11:17.045Z,78.86
2022-09-14T01:13:32.758Z,76.15
2022-09-14T01:15:51.681Z,74.76
2022-09-14T01:18:33.368Z,73.71
2022-09-14T01:20:45.483Z,72.40
2022-09-14T01:22:59.448Z,71.96
2022-09-14T01:25:20.666Z,72.44
2022-09-14T01:27:34.138Z,72.82
2022-09-14T01:29:45.671Z,76.10
2022-09-14T01:32:13.793Z,77.57
2022-09-14T01:34:34.080Z,76.90
2022-09-14T01:36:39.380Z,75.65
2022-09-14T01:38:47.148Z,75.18
2022-09-14T01:40:50.127Z,73.33
2022-09-14T01:42:57.884Z,72.94
2022-09-14T01:45:03.119Z,72.65
2022-09-14T01:47:13.896Z,73.48
2022-09-14T01:49:34.088Z,74.00
2022-09-14T01:51:41.299Z,75.56
2022-09-14T01:53:50.045Z,75.49
2022-09-14T01:55:57.947Z,75.52
2022-09-14T01:58:28.678Z,75.80
2022-09-14T02:00:31.141Z,75.36
2022-09-14T02:02:40.504Z,75.93
2022-09-14T02:04:53.206Z,76.65
2022-09-14T02:06:56.477Z,77.18
2022-09-14T02:08:59.144Z,77.17
2022-09-14T02:11:01.462Z,76.47
2022-09-14T02:13:03.239Z,76.36
2022-09-14T02:15:06.815Z,74.18
2022-09-14T02:17:08.340Z,72.97
2022-09-14T02:19:10.395Z,72.64
2022-09-14T02:21:16.918Z,71.90
2022-09-14T02:23:18.918Z,71.73
2022-09-14T02:25:21.308Z,72.48
2022-09-14T02:27:23.516Z,72.65
2022-09-14T02:29:24.979Z,73.68
2022-09-14T02:31:38.526Z,75.23
2022-09-14T02:33:51.695Z,75.32
2022-09-14T02:36:05.008Z,73.97
2022-09-14T02:38:40.596Z,72.24
2022-09-14T02:41:03.165Z,71.12
2022-09-14T02:43:16.563Z,70.66
2022-09-14T02:45:32.311Z,71.05
2022-09-14T02:47:42.596Z,71.12
2022-09-14T02:49:51.647Z,72.68
2022-09-14T02:52:03.181Z,72.46
2022-09-14T02:54:16.624Z,74.45
2022-09-14T02:56:20.021Z,73.77
2022-09-14T02:58:21.780Z,74.83
2022-09-14T03:00:23.289Z,73.39
2022-09-14T03:02:24.940Z,72.70
2022-09-14T03:04:26.639Z,72.78
2022-09-14T03:06:28.275Z,72.95
2022-09-14T03:08:30.241Z,71.98
2022-09-14T03:10:32.379Z,71.96
2022-09-14T03:12:33.799Z,72.34
2022-09-14T03:14:35.244Z,72.88
2022-09-14T03:16:37.824Z,72.90
2022-09-14T03:18:39.971Z,71.88
2022-09-14T03:20:41.731Z,71.49
2022-09-14T03:22:43.215Z,71.50
2022-09-14T03:24:44.658Z,71.15
2022-09-14T03:26:47.222Z,73.03
2022-09-14T03:28:56.640Z,72.39
2022-09-14T03:31:01.774Z,72.31
2022-09-14T03:33:04.016Z,73.01
2022-09-14T03:35:06.128Z,73.58
2022-09-14T03:37:07.787Z,73.57
2022-09-14T03:39:09.234Z,74.20
2022-09-14T03:41:11.792Z,76.02
2022-09-14T03:43:14.285Z,77.08
2022-09-14T03:45:17.339Z,75.94
2022-09-14T03:47:18.826Z,75.22
2022-09-14T03:49:20.267Z,73.98
2022-09-14T03:51:22.238Z,73.44
2022-09-14T03:53:23.661Z,73.84
2022-09-14T03:55:26.061Z,74.82
2022-09-14T03:57:27.852Z,75.84
2022-09-14T03:59:29.504Z,76.46
2022-09-14T04:01:32.758Z,75.94
2022-09-14T04:03:34.783Z,75.30
2022-09-14T04:05:36.330Z,74.21
2022-09-14T04:07:37.856Z,72.94
2022-09-14T04:09:39.276Z,72.37
2022-09-14T04:11:40.710Z,71.98
2022-09-14T04:13:43.254Z,73.05
2022-09-14T04:15:44.788Z,73.24
2022-09-14T04:17:46.356Z,73.89
2022-09-14T04:19:47.882Z,74.45
2022-09-14T04:21:49.296Z,75.03
2022-09-14T04:24:13.972Z,76.46
2022-09-14T04:26:19.585Z,75.15
2022-09-14T04:28:22.201Z,73.35
2022-09-14T04:30:23.657Z,74.37
2022-09-14T04:32:25.116Z,76.33
2022-09-14T04:34:26.709Z,79.26
2022-09-14T04:36:31.025Z,80.56
2022-09-14T04:38:33.771Z,80.79
2022-09-14T04:40:35.205Z,81.53
2022-09-14T04:42:36.609Z,80.46
2022-09-14T04:44:38.067Z,77.98
2022-09-14T04:46:46.223Z,76.57
2022-09-14T04:48:49.014Z,78.77
2022-09-14T04:50:50.459Z,81.09
2022-09-14T04:52:51.899Z,82.20
2022-09-14T04:54:53.379Z,82.39
2022-09-14T04:56:54.813Z,79.86
2022-09-14T04:59:04.095Z,80.09
2022-09-14T05:01:08.495Z,80.50
2022-09-14T05:03:09.964Z,79.53
2022-09-14T05:05:11.452Z,79.07
2022-09-14T05:07:13.112Z,80.75
2022-09-14T05:09:17.304Z,82.55
2022-09-14T05:11:21.542Z,84.37
2022-09-14T05:13:23.572Z,85.95
2022-09-14T05:15:25.216Z,85.43
2022-09-14T05:17:26.655Z,83.86
2022-09-14T05:19:28.094Z,83.33
2022-09-14T05:21:32.118Z,83.25
2022-09-14T05:23:34.572Z,84.15
2022-09-14T05:25:36.032Z,83.05
2022-09-14T05:27:37.463Z,84.16
2022-09-14T05:29:40.204Z,83.07
2022-09-14T05:31:42.005Z,83.50
2022-09-14T05:33:43.537Z,83.00
2022-09-14T05:35:45.606Z,84.87
2022-09-14T05:37:47.307Z,85.70
2022-09-14T05:39:48.795Z,84.68
2022-09-14T05:41:50.322Z,85.65
2022-09-14T05:43:51.750Z,86.85
2022-09-14T05:45:53.305Z,87.74
2022-09-14T05:47:54.729Z,87.51
2022-09-14T05:49:56.795Z,87.64
2022-09-14T05:51:58.232Z,88.78
2022-09-14T05:54:00.703Z,88.80
2022-09-14T05:56:05.067Z,89.51
2022-09-14T05:58:06.501Z,89.22
2022-09-14T06:00:08.687Z,89.20
2022-09-14T06:02:11.070Z,89.37
2022-09-14T06:04:14.177Z,89.60
2022-09-14T06:06:18.622Z,90.27
2022-09-14T06:08:20.203Z,90.22
2022-09-14T06:10:22.329Z,90.13
2022-09-14T06:12:24.027Z,90.55
2022-09-14T06:14:25.454Z,90.53
2022-09-14T06:16:28.053Z,90.30
2022-09-14T06:18:31.615Z,90.40
2022-09-14T06:20:33.103Z,90.80
2022-09-14T06:22:34.544Z,90.56
2022-09-14T06:24:35.960Z,90.18
2022-09-14T06:26:37.370Z,90.46
2022-09-14T06:28:39.432Z,90.07
2022-09-14T06:30:44.343Z,90.48
2022-09-14T06:32:45.875Z,89.72
2022-09-14T06:34:47.309Z,90.17
2022-09-14T06:36:48.809Z,89.65
2022-09-14T06:38:50.866Z,89.97
2022-09-14T06:40:54.311Z,89.41
2022-09-14T06:42:57.528Z,89.74
2022-09-14T06:44:58.951Z,89.21
2022-09-14T06:47:00.507Z,88.94
2022-09-14T06:49:09.389Z,89.13
2022-09-14T06:51:34.830Z,88.62
2022-09-14T06:53:36.279Z,88.58
2022-09-14T06:55:37.702Z,88.35
2022-09-14T06:57:42.863Z,88.01
2022-09-14T06:59:44.722Z,87.85
2022-09-14T07:01:46.618Z,87.81
2022-09-14T07:03:48.776Z,88.01
2022-09-14T07:05:50.214Z,88.13
2022-09-14T07:07:53.171Z,87.81
2022-09-14T07:09:54.603Z,87.76
2022-09-14T07:11:56.255Z,87.89
2022-09-14T07:13:58.995Z,87.71
2022-09-14T07:16:00.601Z,87.35
2022-09-14T07:18:02.041Z,87.22
2022-09-14T07:20:04.635Z,87.61
2022-09-14T07:22:06.060Z,87.17
2022-09-14T07:24:07.744Z,87.11
2022-09-14T07:26:14.967Z,87.16
2022-09-14T07:28:16.436Z,86.82
2022-09-14T07:30:17.981Z,86.76
2022-09-14T07:32:19.619Z,86.12
2022-09-14T07:34:21.756Z,85.82
2022-09-14T07:36:25.162Z,86.11
2022-09-14T07:38:41.681Z,85.60
2022-09-14T07:40:48.068Z,85.51
2022-09-14T07:42:57.440Z,85.20
2022-09-14T07:44:59.225Z,84.95
2022-09-14T07:47:00.662Z,84.75
2022-09-14T07:49:03.061Z,84.55
2022-09-14T07:51:12.882Z,84.57
2022-09-14T07:53:14.637Z,84.12
2022-09-14T07:55:16.416Z,84.12
2022-09-14T07:57:18.043Z,83.14
2022-09-14T07:59:36.497Z,82.75
2022-09-14T08:01:38.632Z,82.65
2022-09-14T08:03:42.137Z,82.62
2022-09-14T08:05:43.584Z,82.46
2022-09-14T08:07:45.114Z,82.30
2022-09-14T08:09:47.099Z,81.81
2022-09-14T08:11:48.565Z,81.65
2022-09-14T08:13:53.494Z,81.83
2022-09-14T08:15:54.906Z,81.90
2022-09-14T08:17:56.352Z,81.77
2022-09-14T08:19:57.789Z,81.57
2022-09-14T08:21:59.242Z,81.29
2022-09-14T08:24:02.465Z,81.53
2022-09-14T08:26:08.738Z,80.71
2022-09-14T08:28:10.180Z,80.27
2022-09-14T08:30:13.451Z,80.01
2022-09-14T08:32:14.887Z,79.80
2022-09-14T08:34:17.219Z,79.77
2022-09-14T08:36:21.885Z,79.85
2022-09-14T08:38:23.723Z,79.62
2022-09-14T08:40:25.269Z,79.02
2022-09-14T08:42:26.881Z,78.32
2022-09-14T08:44:35.765Z,77.64
2022-09-14T08:46:49.079Z,77.71
2022-09-14T08:48:50.710Z,77.89
2022-09-14T08:50:53.834Z,77.28
2022-09-14T08:52:55.312Z,76.89
2022-09-14T08:54:59.981Z,76.72
2022-09-14T08:57:18.322Z,76.65
2022-09-14T08:59:38.277Z,76.64
2022-09-14T09:02:19.825Z,76.11
2022-09-14T09:04:55.249Z,74.57
2022-09-14T09:07:21.597Z,73.07
2022-09-14T09:09:28.269Z,68.44
2022-09-14T09:11:37.709Z,67.54
2022-09-14T09:13:40.125Z,65.16
2022-09-14T09:15:45.040Z,67.80
2022-09-14T09:17:50.264Z,69.72
2022-09-14T09:20:01.964Z,69.45
2022-09-14T09:22:06.204Z,66.22
2022-09-14T09:24:37.215Z,62.95
2022-09-14T09:26:39.342Z,61.77
2022-09-14T09:28:49.414Z,62.85
2022-09-14T09:30:53.090Z,64.80
2022-09-14T09:32:54.821Z,65.43
2022-09-14T09:34:56.308Z,66.14
2022-09-14T09:36:59.286Z,65.82
2022-09-14T09:39:05.024Z,65.85
2022-09-14T09:41:12.927Z,65.96
2022-09-14T09:43:33.341Z,62.21
2022-09-14T09:46:01.490Z,62.40
2022-09-14T09:48:09.918Z,63.28
2022-09-14T09:50:14.625Z,63.47
2022-09-14T09:52:17.458Z,62.79
2022-09-14T09:54:28.051Z,63.18
2022-09-14T09:56:32.971Z,60.09
2022-09-14T09:58:38.826Z,59.97
2022-09-14T10:00:40.727Z,59.63
2022-09-14T10:02:42.316Z,59.84
2022-09-14T10:05:07.162Z,59.67
2022-09-14T10:07:21.047Z,60.40
2022-09-14T10:09:27.012Z,60.33
2022-09-14T10:11:32.880Z,60.75
2022-09-14T10:13:38.753Z,61.14
2022-09-14T10:15:41.357Z,60.79
2022-09-14T10:18:11.945Z,60.12
2022-09-14T10:20:23.259Z,60.66
2022-09-14T10:22:51.196Z,60.59
2022-09-14T10:25:02.119Z,60.30
2022-09-14T10:27:35.717Z,59.71
2022-09-14T10:29:42.494Z,59.10
2022-09-14T10:31:45.288Z,58.80
2022-09-14T10:33:51.858Z,59.61
2022-09-14T10:36:21.703Z,59.27
2022-09-14T10:38:38.146Z,59.08
2022-09-14T10:40:44.737Z,59.38
2022-09-14T10:42:54.405Z,59.44
2022-09-14T10:45:14.864Z,58.80
2022-09-14T10:47:19.065Z,58.86
2022-09-14T10:49:58.135Z,58.86
2022-09-14T10:52:16.683Z,58.92
2022-09-14T10:54:54.402Z,59.43
2022-09-14T10:56:55.911Z,58.55
2022-09-14T10:59:22.006Z,58.69
2022-09-14T11:01:41.977Z,57.13
2022-09-14T11:04:15.380Z,57.30
2022-09-14T11:06:25.693Z,57.29
2022-09-14T11:08:36.593Z,57.06
2022-09-14T11:10:44.159Z,56.29
2022-09-14T11:13:07.643Z,55.86
2022-09-14T11:15:31.424Z,56.06
2022-09-14T11:18:02.033Z,53.91
2022-09-14T11:20:18.783Z,53.79
2022-09-14T11:22:44.668Z,52.80
2022-09-14T11:25:01.116Z,52.41
2022-09-14T11:27:18.912Z,52.12
2022-09-14T11:29:38.989Z,51.52
2022-09-14T11:32:17.028Z,51.50
2022-09-14T11:34:23.452Z,51.64
2022-09-14T11:36:39.495Z,52.22
2022-09-14T11:38:47.325Z,52.58
2022-09-14T11:40:54.718Z,52.36
2022-09-14T11:43:04.253Z,52.55
2022-09-14T11:45:15.041Z,53.54
2022-09-14T11:47:18.797Z,52.70
2022-09-14T11:49:23.286Z,52.43
2022-09-14T11:51:32.477Z,53.07
2022-09-14T11:53:34.756Z,53.54
2022-09-14T11:55:37.396Z,54.38
2022-09-14T11:57:39.023Z,54.85
2022-09-14T11:59:40.408Z,55.52
2022-09-14T12:01:41.857Z,55.65
2022-09-14T12:04:01.153Z,56.01
2022-09-14T12:06:28.511Z,55.36
2022-09-14T12:08:33.031Z,54.80
2022-09-14T12:11:09.414Z,54.63
2022-09-14T12:13:10.800Z,55.48
2022-09-14T12:15:28.913Z,55.61
2022-09-14T12:17:41.713Z,56.26
2022-09-14T12:19:45.089Z,55.99
2022-09-14T12:21:46.982Z,56.31
2022-09-14T12:23:52.258Z,56.30
2022-09-14T12:26:08.729Z,55.88
2022-09-14T12:28:57.287Z,56.31
2022-09-14T12:30:58.753Z,56.72
2022-09-14T12:33:00.624Z,55.75
2022-09-14T12:35:39.051Z,57.20
2022-09-14T12:37:40.518Z,56.36
2022-09-14T12:40:23.103Z,56.62
2022-09-14T12:42:31.441Z,57.69
2022-09-14T12:44:43.709Z,57.46
2022-09-14T12:46:45.251Z,57.46
2022-09-14T12:48:49.444Z,56.92
2022-09-14T12:50:53.086Z,56.39
2022-09-14T12:53:05.663Z,57.10
2022-09-14T12:55:17.052Z,57.20
2022-09-14T12:57:36.655Z,56.50
2022-09-14T13:00:15.348Z,56.78
2022-09-14T13:02:47.901Z,56.69
2022-09-14T13:04:53.988Z,57.35
2022-09-14T13:06:58.938Z,56.71
2022-09-14T13:09:03.102Z,57.62
2022-09-14T13:11:06.901Z,57.23
2022-09-14T13:13:34.605Z,56.89
2022-09-14T13:15:52.345Z,57.19
2022-09-14T13:18:22.935Z,57.53
2022-09-14T13:20:24.599Z,56.84
2022-09-14T13:22:29.334Z,56.59
2022-09-14T13:24:35.926Z,56.43
2022-09-14T13:26:38.092Z,55.06
2022-09-14T13:28:44.131Z,54.74
2022-09-14T13:31:01.077Z,54.76
2022-09-14T13:33:04.116Z,54.93
2022-09-14T13:35:06.541Z,54.45
2022-09-14T13:37:08.139Z,54.60
2022-09-14T13:39:33.182Z,54.42
2022-09-14T13:41:34.789Z,54.90
2022-09-14T13:43:36.830Z,56.28
2022-09-14T13:45:39.520Z,56.21
2022-09-14T13:47:42.338Z,55.97
2022-09-14T13:49:45.679Z,56.82
2022-09-14T13:51:47.466Z,57.07
2022-09-14T13:53:54.717Z,57.52
2022-09-14T13:55:56.166Z,58.08
2022-09-14T13:58:13.590Z,58.08
2022-09-14T14:00:16.016Z,58.80
2022-09-14T14:02:17.561Z,58.96
2022-09-14T14:04:27.379Z,60.12
2022-09-14T14:06:30.398Z,59.40
2022-09-14T14:08:38.082Z,59.05
2022-09-14T14:10:47.399Z,59.26
2022-09-14T14:12:50.807Z,59.39
2022-09-14T14:15:00.608Z,59.53
2022-09-14T14:17:13.895Z,59.66
2022-09-14T14:19:29.232Z,58.19
2022-09-14T14:21:33.381Z,58.62
2022-09-14T14:23:35.163Z,58.27
2022-09-14T14:25:48.843Z,58.35
2022-09-14T14:27:50.468Z,57.35
2022-09-14T14:29:52.862Z,57.24
2022-09-14T14:31:56.228Z,58.23
2022-09-14T14:33:58.858Z,58.97
2022-09-14T14:36:01.829Z,58.02
2022-09-14T14:38:03.395Z,58.06
2022-09-14T14:40:05.383Z,58.26
2022-09-14T14:42:07.360Z,58.44
2022-09-14T14:44:15.791Z,58.45
2022-09-14T14:46:17.386Z,60.18
2022-09-14T14:48:18.979Z,60.05
2022-09-14T14:50:23.516Z,59.03
2022-09-14T14:52:25.030Z,58.68
2022-09-14T14:54:28.087Z,58.39
2022-09-14T14:56:29.770Z,60.30
2022-09-14T14:58:36.160Z,58.54
2022-09-14T15:00:38.642Z,58.59
2022-09-14T15:02:40.134Z,58.18
2022-09-14T15:04:41.564Z,58.56
2022-09-14T15:06:43.027Z,58.29
2022-09-14T15:08:44.570Z,58.96
2022-09-14T15:10:46.205Z,58.86
2022-09-14T15:12:47.841Z,58.40
2022-09-14T15:14:49.300Z,58.93
2022-09-14T15:16:50.902Z,58.57
2022-09-14T15:18:52.533Z,58.06
2022-09-14T15:20:53.993Z,58.47
2022-09-14T15:22:55.545Z,58.43
2022-09-14T15:24:57.017Z,58.95
2022-09-14T15:26:59.448Z,59.15
2022-09-14T15:29:01.322Z,59.19
2022-09-14T15:31:07.146Z,58.86
2022-09-14T15:33:09.252Z,59.39
2022-09-14T15:35:13.402Z,59.64
2022-09-14T15:37:14.832Z,58.12
2022-09-14T15:39:18.036Z,58.23
2022-09-14T15:41:19.483Z,58.52
2022-09-14T15:43:21.084Z,57.46
2022-09-14T15:45:22.612Z,57.58
2022-09-14T15:47:24.134Z,58.00
2022-09-14T15:49:26.341Z,59.56
2022-09-14T15:51:27.815Z,61.04
2022-09-14T15:53:29.254Z,61.05
2022-09-14T15:55:30.881Z,61.17
2022-09-14T15:57:32.550Z,60.96
2022-09-14T15:59:34.820Z,60.87
2022-09-14T16:01:36.636Z,59.76
2022-09-14T16:03:40.132Z,58.76
2022-09-14T16:05:41.669Z,58.87
2022-09-14T16:07:43.295Z,58.68
2022-09-14T16:09:44.753Z,58.84
2022-09-14T16:11:46.251Z,59.24
2022-09-14T16:13:49.787Z,58.74
2022-09-14T16:15:56.687Z,58.92
2022-09-14T16:18:00.172Z,59.48
2022-09-14T16:20:02.892Z,59.84
2022-09-14T16:22:05.051Z,60.45
2022-09-14T16:24:10.153Z,60.44
2022-09-14T16:26:16.056Z,61.33
2022-09-14T16:28:17.543Z,62.01
2022-09-14T16:30:19.033Z,62.12
2022-09-14T16:32:22.108Z,61.98
2022-09-14T16:34:27.145Z,61.85
2022-09-14T16:36:31.087Z,61.82
2022-09-14T16:38:33.400Z,61.28
2022-09-14T16:40:34.936Z,61.91
2022-09-14T16:42:36.728Z,62.21
2022-09-14T16:44:38.168Z,62.07
2022-09-14T16:46:39.670Z,61.92
2022-09-14T16:48:46.324Z,61.98
2022-09-14T16:50:52.863Z,62.11
2022-09-14T16:52:54.287Z,61.89
2022-09-14T16:54:56.346Z,62.45
2022-09-14T16:56:59.726Z,62.56
2022-09-14T16:59:02.315Z,62.79
2022-09-14T17:01:07.286Z,62.83
2022-09-14T17:03:08.771Z,63.15
2022-09-14T17:05:10.543Z,63.25
2022-09-14T17:07:11.965Z,63.47
2022-09-14T17:09:22.035Z,63.33
2022-09-14T17:11:23.919Z,63.33
2022-09-14T17:13:26.065Z,63.47
2022-09-14T17:15:27.515Z,63.82
2022-09-14T17:17:28.934Z,63.90
2022-09-14T17:19:30.505Z,63.91
2022-09-14T17:21:35.538Z,63.81
2022-09-14T17:23:37.295Z,63.77
2022-09-14T17:25:38.741Z,63.87
2022-09-14T17:27:40.507Z,63.63
2022-09-14T17:29:41.947Z,63.73
2022-09-14T17:31:44.915Z,63.88
2022-09-14T17:33:47.393Z,63.87
2022-09-14T17:35:59.137Z,63.80
2022-09-14T17:38:00.977Z,63.99
2022-09-14T17:40:02.877Z,64.18
2022-09-14T17:42:04.522Z,64.54
2022-09-14T17:44:07.582Z,64.53
2022-09-14T17:46:14.039Z,64.74
2022-09-14T17:48:15.561Z,65.13
2022-09-14T17:50:17.044Z,65.24
2022-09-14T17:52:18.511Z,65.52
2022-09-14T17:54:20.319Z,65.66
2022-09-14T17:56:24.113Z,65.84
2022-09-14T17:58:25.596Z,65.72
2022-09-14T18:00:27.212Z,65.80
2022-09-14T18:02:28.661Z,66.25
2022-09-14T18:04:30.170Z,66.11
2022-09-14T18:06:38.297Z,66.47
2022-09-14T18:08:40.278Z,66.46
2022-09-14T18:10:41.755Z,66.51
2022-09-14T18:12:44.823Z,66.73
2022-09-14T18:14:46.920Z,66.81
2022-09-14T18:16:48.714Z,66.89
2022-09-14T18:18:50.203Z,67.08
2022-09-14T18:20:51.665Z,67.41
2022-09-14T18:22:54.131Z,67.47
2022-09-14T18:24:55.563Z,67.54
2022-09-14T18:26:57.881Z,67.50
2022-09-14T18:28:59.363Z,67.59
2022-09-14T18:31:02.635Z,67.59
2022-09-14T18:33:04.254Z,67.47
2022-09-14T18:35:06.327Z,67.32
2022-09-14T18:37:08.143Z,67.35
2022-09-14T18:39:10.717Z,67.58
2022-09-14T18:41:12.745Z,67.65
2022-09-14T18:43:16.728Z,67.69
2022-09-14T18:45:18.209Z,67.75
2022-09-14T18:47:21.711Z,67.88
2022-09-14T18:49:23.124Z,67.73
2022-09-14T18:51:25.628Z,67.64
2022-09-14T18:53:27.440Z,67.83
2022-09-14T18:55:28.959Z,67.83
2022-09-14T18:57:30.378Z,67.96
2022-09-14T18:59:31.795Z,68.14
2022-09-14T19:01:34.973Z,68.07
2022-09-14T19:03:38.355Z,67.79
2022-09-14T19:05:41.530Z,68.05
2022-09-14T19:07:42.976Z,68.13
2022-09-14T19:09:44.389Z,68.10
2022-09-14T19:11:45.889Z,68.47
2022-09-14T19:13:48.614Z,68.33
2022-09-14T19:15:50.121Z,67.99
2022-09-14T19:17:51.549Z,68.26
2022-09-14T19:19:53.591Z,68.38
2022-09-14T19:21:55.087Z,68.18
2022-09-14T19:24:04.962Z,68.56
2022-09-14T19:26:09.059Z,68.28
2022-09-14T19:28:10.690Z,68.16
2022-09-14T19:30:13.078Z,68.41
2022-09-14T19:32:14.526Z,68.46
2022-09-14T19:34:15.956Z,68.76
2022-09-14T19:36:21.319Z,68.90
2022-09-14T19:38:22.730Z,68.68
2022-09-14T19:40:24.608Z,70.16
2022-09-14T19:42:26.234Z,70.31
2022-09-14T19:44:27.825Z,71.73
2022-09-14T19:46:31.036Z,72.24
2022-09-14T19:48:34.015Z,72.12
2022-09-14T19:50:35.463Z,71.35
2022-09-14T19:52:36.915Z,72.08
2022-09-14T19:54:38.341Z,72.67
2022-09-14T19:56:40.749Z,71.89
2022-09-14T19:58:45.266Z,71.12
2022-09-14T20:00:52.874Z,70.55
2022-09-14T20:02:54.387Z,70.12
2022-09-14T20:04:55.875Z,70.11
2022-09-14T20:06:57.487Z,69.87
2022-09-14T20:09:09.120Z,69.55
2022-09-14T20:11:19.738Z,70.09
2022-09-14T20:13:21.886Z,70.40
2022-09-14T20:15:23.324Z,69.95
2022-09-14T20:17:24.765Z,69.75
2022-09-14T20:19:28.474Z,70.04
2022-09-14T20:21:29.986Z,69.90
2022-09-14T20:23:31.413Z,70.42
2022-09-14T20:25:33.323Z,70.67
2022-09-14T20:27:34.791Z,70.61
2022-09-14T20:29:36.300Z,70.54
2022-09-14T20:31:38.020Z,70.14
2022-09-14T20:33:40.006Z,70.20
2022-09-14T20:35:41.862Z,70.10
2022-09-14T20:37:43.685Z,70.15
2022-09-14T20:39:45.187Z,70.03
2022-09-14T20:41:46.736Z,70.22
2022-09-14T20:43:49.170Z,69.74
2022-09-14T20:45:59.181Z,69.39
2022-09-14T20:48:00.657Z,69.59
2022-09-14T20:50:02.110Z,69.66
2022-09-14T20:52:03.760Z,69.54
2022-09-14T20:54:06.110Z,69.62
2022-09-14T20:56:13.304Z,69.72
2022-09-14T20:58:14.756Z,69.77
2022-09-14T21:00:16.350Z,69.45
2022-09-14T21:02:17.850Z,69.60
2022-09-14T21:04:22.505Z,69.79
2022-09-14T21:06:25.948Z,69.79
2022-09-14T21:08:28.936Z,70.00
2022-09-14T21:10:30.712Z,69.99
2022-09-14T21:12:32.163Z,69.91
2022-09-14T21:14:33.589Z,70.11
2022-09-14T21:16:38.429Z,70.00
2022-09-14T21:18:40.906Z,69.85
2022-09-14T21:20:42.363Z,70.02
2022-09-14T21:22:45.166Z,69.86
2022-09-14T21:24:46.583Z,70.04
2022-09-14T21:26:48.084Z,70.02
2022-09-14T21:28:54.004Z,70.06
2022-09-14T21:31:06.280Z,70.20
2022-09-14T21:33:07.759Z,70.18
2022-09-14T21:35:09.945Z,70.31
2022-09-14T21:37:11.746Z,70.43
2022-09-14T21:39:21.560Z,70.26
2022-09-14T21:41:25.300Z,70.04
2022-09-14T21:43:27.494Z,70.21
2022-09-14T21:45:28.991Z,70.29
2022-09-14T21:47:30.737Z,70.22
2022-09-14T21:49:32.307Z,70.08
2022-09-14T21:51:36.784Z,70.01
2022-09-14T21:53:38.216Z,70.03
2022-09-14T21:55:40.962Z,70.15
2022-09-14T21:57:42.479Z,70.30
2022-09-14T21:59:43.906Z,70.58
2022-09-14T22:01:46.824Z,70.21
2022-09-14T22:03:51.467Z,70.25
2022-09-14T22:06:02.069Z,70.01
2022-09-14T22:08:03.574Z,70.08
2022-09-14T22:10:05.936Z,69.96
2022-09-14T22:12:07.600Z,69.92
2022-09-14T22:14:18.186Z,70.27
2022-09-14T22:16:20.266Z,69.89
2022-09-14T22:18:21.748Z,69.80
2022-09-14T22:20:23.226Z,70.07
2022-09-14T22:22:24.667Z,70.27
2022-09-14T22:24:37.176Z,70.16
2022-09-14T22:26:40.066Z,70.31
2022-09-14T22:28:41.621Z,70.12
2022-09-14T22:30:54.524Z,70.33
2022-09-14T22:32:56.007Z,70.07
2022-09-14T22:34:57.430Z,70.50
2022-09-14T22:36:58.864Z,71.01
2022-09-14T22:39:01.090Z,70.83
2022-09-14T22:41:20.825Z,70.42
2022-09-14T22:43:23.196Z,70.38
2022-09-14T22:45:24.683Z,69.92
2022-09-14T22:47:26.165Z,69.96
2022-09-14T22:49:27.650Z,70.29
2022-09-14T22:51:29.875Z,70.03
2022-09-14T22:53:32.128Z,70.19
2022-09-14T22:55:38.864Z,69.93
2022-09-14T22:57:40.300Z,70.28
2022-09-14T22:59:42.449Z,70.26
2022-09-14T23:01:44.068Z,70.41
2022-09-14T23:03:45.616Z,70.18
2022-09-14T23:05:53.217Z,70.39
2022-09-14T23:07:55.564Z,70.59
2022-09-14T23:09:57.048Z,70.82
2022-09-14T23:11:58.540Z,71.27
2022-09-14T23:14:00.068Z,71.16
2022-09-14T23:16:02.159Z,70.74
2022-09-14T23:18:03.770Z,71.32
2022-09-14T23:20:05.995Z,70.68
2022-09-14T23:22:07.466Z,71.84
2022-09-14T23:24:10.463Z,71.45
2022-09-14T23:26:12.502Z,70.93
2022-09-14T23:28:13.937Z,70.74
2022-09-14T23:30:15.379Z,71.86
2022-09-14T23:32:16.812Z,72.38
2022-09-14T23:34:18.250Z,73.36
2022-09-14T23:36:21.854Z,73.04
2022-09-14T23:38:23.928Z,73.17
2022-09-14T23:40:25.501Z,72.93
2022-09-14T23:42:27.038Z,72.70
2022-09-14T23:44:28.487Z,72.96
2022-09-14T23:46:29.983Z,74.31
2022-09-14T23:48:31.493Z,75.13
2022-09-14T23:50:33.817Z,74.30
2022-09-14T23:52:35.297Z,75.76
2022-09-14T23:54:36.747Z,75.34
2022-09-14T23:56:38.581Z,76.07
2022-09-14T23:58:41.852Z,76.56
